sensor_id;sensor_type;location;lat;lon;timestamp;pressure;altitude;pressure_sealevel;temperature;humidity
20394;BME280;10356;50.544;9.642;2022-10-30T00:01:53;98657.16;;;11.52;100.00
20394;BME280;10356;50.544;9.642;2022-10-30T00:04:19;98653.34;;;11.56;100.00
20394;BME280;10356;50.544;9.642;2022-10-30T00:06:45;98654.19;;;11.57;100.00
20394;BME280;10356;50.544;9.642;2022-10-30T00:09:14;98655.84;;;11.58;100.00
20394;BME280;10356;50.544;9.642;2022-10-30T00:11:41;98658.25;;;11.61;100.00
20394;BME280;10356;50.544;9.642;2022-10-30T00:14:07;98653.75;;;11.63;100.00
20394;BME280;10356;50.544;9.642;2022-10-30T00:16:34;98662.06;;;11.68;100.00
20394;BME280;10356;50.544;9.642;2022-10-30T00:19:00;98657.81;;;11.67;100.00
20394;BME280;10356;50.544;9.642;2022-10-30T00:21:27;98660.19;;;11.70;100.00
20394;BME280;10356;50.544;9.642;2022-10-30T00:23:53;98660.81;;;11.73;100.00
20394;BME280;10356;50.544;9.642;2022-10-30T00:26:22;98650.94;;;11.77;100.00
20394;BME280;10356;50.544;9.642;2022-10-30T00:28:49;98655.34;;;11.76;100.00
20394;BME280;10356;50.544;9.642;2022-10-30T00:31:16;98650.22;;;11.75;100.00
20394;BME280;10356;50.544;9.642;2022-10-30T00:33:42;98651.16;;;11.74;100.00
20394;BME280;10356;50.544;9.642;2022-10-30T00:36:09;98649.41;;;11.74;100.00
20394;BME280;10356;50.544;9.642;2022-10-30T00:38:35;98645.84;;;11.75;100.00
20394;BME280;10356;50.544;9.642;2022-10-30T00:41:02;98644.06;;;11.76;100.00
20394;BME280;10356;50.544;9.642;2022-10-30T00:43:33;98647.38;;;11.78;100.00
20394;BME280;10356;50.544;9.642;2022-10-30T00:46:01;98646.66;;;11.76;100.00
20394;BME280;10356;50.544;9.642;2022-10-30T00:48:31;98644.88;;;11.76;100.00
20394;BME280;10356;50.544;9.642;2022-10-30T00:50:58;98642.41;;;11.75;100.00
20394;BME280;10356;50.544;9.642;2022-10-30T00:53:27;98637.41;;;11.72;100.00
20394;BME280;10356;50.544;9.642;2022-10-30T00:55:56;98636.09;;;11.66;100.00
20394;BME280;10356;50.544;9.642;2022-10-30T00:58:27;98633.56;;;11.65;100.00
20394;BME280;10356;50.544;9.642;2022-10-30T01:00:59;98632.72;;;11.64;100.00
20394;BME280;10356;50.544;9.642;2022-10-30T01:03:28;98630.47;;;11.60;100.00
20394;BME280;10356;50.544;9.642;2022-10-30T01:05:57;98632.34;;;11.58;100.00
20394;BME280;10356;50.544;9.642;2022-10-30T01:08:26;98629.75;;;11.58;100.00
20394;BME280;10356;50.544;9.642;2022-10-30T01:10:52;98627.97;;;11.58;100.00
20394;BME280;10356;50.544;9.642;2022-10-30T01:13:21;98621.19;;;11.56;100.00
20394;BME280;10356;50.544;9.642;2022-10-30T01:16:10;98622.88;;;11.57;100.00
20394;BME280;10356;50.544;9.642;2022-10-30T01:18:46;98617.66;;;11.57;100.00
20394;BME280;10356;50.544;9.642;2022-10-30T01:21:26;98626.44;;;11.56;100.00
20394;BME280;10356;50.544;9.642;2022-10-30T01:24:17;98615.06;;;11.57;100.00
20394;BME280;10356;50.544;9.642;2022-10-30T01:26:48;98619.94;;;11.61;100.00
20394;BME280;10356;50.544;9.642;2022-10-30T01:29:26;98617.81;;;11.66;100.00
20394;BME280;10356;50.544;9.642;2022-10-30T01:32:12;98614.16;;;11.80;100.00
20394;BME280;10356;50.544;9.642;2022-10-30T01:34:50;98617.63;;;11.92;100.00
20394;BME280;10356;50.544;9.642;2022-10-30T01:37:24;98616.31;;;11.97;100.00
20394;BME280;10356;50.544;9.642;2022-10-30T01:39:53;98623.66;;;11.92;100.00
20394;BME280;10356;50.544;9.642;2022-10-30T01:42:46;98617.84;;;11.89;100.00
20394;BME280;10356;50.544;9.642;2022-10-30T01:45:16;98616.88;;;11.78;100.00
20394;BME280;10356;50.544;9.642;2022-10-30T01:47:51;98618.66;;;11.78;100.00
20394;BME280;10356;50.544;9.642;2022-10-30T01:50:28;98612.63;;;11.77;100.00
20394;BME280;10356;50.544;9.642;2022-10-30T01:53:02;98615.25;;;11.77;100.00
20394;BME280;10356;50.544;9.642;2022-10-30T01:55:34;98612.72;;;11.76;100.00
20394;BME280;10356;50.544;9.642;2022-10-30T01:58:14;98607.28;;;11.79;100.00
20394;BME280;10356;50.544;9.642;2022-10-30T02:00:46;98605.38;;;11.81;100.00
20394;BME280;10356;50.544;9.642;2022-10-30T02:03:17;98603.72;;;11.80;100.00
20394;BME280;10356;50.544;9.642;2022-10-30T02:05:47;98605.38;;;11.81;100.00
20394;BME280;10356;50.544;9.642;2022-10-30T02:08:14;98602.91;;;11.79;100.00
20394;BME280;10356;50.544;9.642;2022-10-30T02:10:41;98608.94;;;11.80;100.00
20394;BME280;10356;50.544;9.642;2022-10-30T02:13:09;98603.50;;;11.83;100.00
20394;BME280;10356;50.544;9.642;2022-10-30T02:15:35;98597.78;;;11.89;100.00
20394;BME280;10356;50.544;9.642;2022-10-30T02:18:03;98601.00;;;11.93;100.00
20394;BME280;10356;50.544;9.642;2022-10-30T02:20:31;98594.47;;;12.09;100.00
20394;BME280;10356;50.544;9.642;2022-10-30T02:22:58;98605.84;;;12.19;100.00
20394;BME280;10356;50.544;9.642;2022-10-30T02:25:25;98600.16;;;12.25;100.00
20394;BME280;10356;50.544;9.642;2022-10-30T02:27:51;98605.38;;;12.25;100.00
20394;BME280;10356;50.544;9.642;2022-10-30T02:30:18;98606.34;;;12.13;100.00
20394;BME280;10356;50.544;9.642;2022-10-30T02:32:44;98610.25;;;12.08;100.00
20394;BME280;10356;50.544;9.642;2022-10-30T02:35:11;98609.91;;;12.01;100.00
20394;BME280;10356;50.544;9.642;2022-10-30T02:37:39;98611.94;;;11.98;100.00
20394;BME280;10356;50.544;9.642;2022-10-30T02:40:06;98612.63;;;12.00;100.00
20394;BME280;10356;50.544;9.642;2022-10-30T02:42:33;98608.47;;;11.97;100.00
20394;BME280;10356;50.544;9.642;2022-10-30T02:45:00;98611.09;;;11.97;100.00
20394;BME280;10356;50.544;9.642;2022-10-30T02:47:27;98608.47;;;11.97;100.00
20394;BME280;10356;50.544;9.642;2022-10-30T02:49:53;98604.09;;;11.98;100.00
20394;BME280;10356;50.544;9.642;2022-10-30T02:52:20;98604.91;;;11.98;100.00
20394;BME280;10356;50.544;9.642;2022-10-30T02:54:48;98597.06;;;11.98;100.00
20394;BME280;10356;50.544;9.642;2022-10-30T02:57:14;98600.78;;;11.96;100.00
20394;BME280;10356;50.544;9.642;2022-10-30T02:59:40;98597.31;;;11.95;100.00
20394;BME280;10356;50.544;9.642;2022-10-30T03:02:07;98604.44;;;11.93;100.00
20394;BME280;10356;50.544;9.642;2022-10-30T03:04:33;98616.78;;;11.91;100.00
20394;BME280;10356;50.544;9.642;2022-10-30T03:07:00;98621.16;;;11.91;100.00
20394;BME280;10356;50.544;9.642;2022-10-30T03:09:27;98627.44;;;11.88;100.00
20394;BME280;10356;50.544;9.642;2022-10-30T03:11:55;98622.47;;;11.85;100.00
20394;BME280;10356;50.544;9.642;2022-10-30T03:14:21;98624.50;;;11.82;100.00
20394;BME280;10356;50.544;9.642;2022-10-30T03:16:48;98622.22;;;11.77;100.00
20394;BME280;10356;50.544;9.642;2022-10-30T03:19:16;98625.06;;;11.74;100.00
20394;BME280;10356;50.544;9.642;2022-10-30T03:21:43;98628.13;;;11.68;100.00
20394;BME280;10356;50.544;9.642;2022-10-30T03:24:09;98622.28;;;11.64;100.00
20394;BME280;10356;50.544;9.642;2022-10-30T03:26:36;98627.63;;;11.63;100.00
20394;BME280;10356;50.544;9.642;2022-10-30T03:29:04;98629.75;;;11.58;100.00
20394;BME280;10356;50.544;9.642;2022-10-30T03:31:30;98626.66;;;11.53;100.00
20394;BME280;10356;50.544;9.642;2022-10-30T03:33:57;98631.25;;;11.49;100.00
20394;BME280;10356;50.544;9.642;2022-10-30T03:36:24;98639.34;;;11.46;100.00
20394;BME280;10356;50.544;9.642;2022-10-30T03:38:51;98634.56;;;11.40;100.00
20394;BME280;10356;50.544;9.642;2022-10-30T03:41:17;98633.25;;;11.35;100.00
20394;BME280;10356;50.544;9.642;2022-10-30T03:43:44;98638.69;;;11.32;100.00
20394;BME280;10356;50.544;9.642;2022-10-30T03:46:12;98641.53;;;11.29;100.00
20394;BME280;10356;50.544;9.642;2022-10-30T03:48:38;98639.38;;;11.23;100.00
20394;BME280;10356;50.544;9.642;2022-10-30T03:51:05;98644.69;;;11.21;100.00
20394;BME280;10356;50.544;9.642;2022-10-30T03:53:31;98639.38;;;11.23;100.00
20394;BME280;10356;50.544;9.642;2022-10-30T03:55:59;98643.78;;;11.22;100.00
20394;BME280;10356;50.544;9.642;2022-10-30T03:58:26;98637.94;;;11.19;100.00
20394;BME280;10356;50.544;9.642;2022-10-30T04:00:53;98634.84;;;11.14;100.00
20394;BME280;10356;50.544;9.642;2022-10-30T04:03:21;98635.88;;;11.11;100.00
20394;BME280;10356;50.544;9.642;2022-10-30T04:05:49;98632.78;;;11.06;100.00
20394;BME280;10356;50.544;9.642;2022-10-30T04:08:18;98637.16;;;11.06;100.00
20394;BME280;10356;50.544;9.642;2022-10-30T04:10:45;98632.41;;;10.99;100.00
20394;BME280;10356;50.544;9.642;2022-10-30T04:13:13;98631.47;;;11.01;100.00
20394;BME280;10356;50.544;9.642;2022-10-30T04:15:40;98639.50;;;10.97;100.00
20394;BME280;10356;50.544;9.642;2022-10-30T04:18:09;98632.41;;;10.99;100.00
20394;BME280;10356;50.544;9.642;2022-10-30T04:20:38;98628.25;;;10.97;100.00
20394;BME280;10356;50.544;9.642;2022-10-30T04:23:06;98631.69;;;10.97;100.00
20394;BME280;10356;50.544;9.642;2022-10-30T04:25:34;98625.47;;;10.87;100.00
20394;BME280;10356;50.544;9.642;2022-10-30T04:28:01;98627.38;;;10.85;100.00
20394;BME280;10356;50.544;9.642;2022-10-30T04:30:28;98618.81;;;10.83;100.00
20394;BME280;10356;50.544;9.642;2022-10-30T04:32:58;98620.00;;;10.79;100.00
20394;BME280;10356;50.544;9.642;2022-10-30T04:35:26;98622.72;;;10.78;100.00
20394;BME280;10356;50.544;9.642;2022-10-30T04:37:56;98621.16;;;10.75;100.00
20394;BME280;10356;50.544;9.642;2022-10-30T04:40:24;98621.47;;;10.71;100.00
20394;BME280;10356;50.544;9.642;2022-10-30T04:42:52;98619.72;;;10.71;100.00
20394;BME280;10356;50.544;9.642;2022-10-30T04:45:18;98611.50;;;10.65;100.00
20394;BME280;10356;50.544;9.642;2022-10-30T04:47:45;98601.91;;;10.65;100.00
20394;BME280;10356;50.544;9.642;2022-10-30T04:50:13;98602.34;;;10.59;100.00
20394;BME280;10356;50.544;9.642;2022-10-30T04:52:40;98600.91;;;10.55;100.00
20394;BME280;10356;50.544;9.642;2022-10-30T04:55:09;98594.13;;;10.53;100.00
20394;BME280;10356;50.544;9.642;2022-10-30T04:57:36;98598.97;;;10.46;100.00
20394;BME280;10356;50.544;9.642;2022-10-30T05:00:03;98596.38;;;10.46;100.00
20394;BME280;10356;50.544;9.642;2022-10-30T05:02:29;98596.81;;;10.40;100.00
20394;BME280;10356;50.544;9.642;2022-10-30T05:04:56;98602.81;;;10.41;100.00
20394;BME280;10356;50.544;9.642;2022-10-30T05:07:22;98601.06;;;10.41;100.00
20394;BME280;10356;50.544;9.642;2022-10-30T05:09:48;98605.53;;;10.39;100.00
20394;BME280;10356;50.544;9.642;2022-10-30T05:12:16;98606.38;;;10.40;100.00
20394;BME280;10356;50.544;9.642;2022-10-30T05:14:43;98609.09;;;10.38;100.00
20394;BME280;10356;50.544;9.642;2022-10-30T05:17:10;98600.22;;;10.41;100.00
20394;BME280;10356;50.544;9.642;2022-10-30T05:19:36;98601.59;;;10.46;100.00
20394;BME280;10356;50.544;9.642;2022-10-30T05:22:03;98589.28;;;10.48;100.00
20394;BME280;10356;50.544;9.642;2022-10-30T05:24:29;98580.31;;;10.52;100.00
20394;BME280;10356;50.544;9.642;2022-10-30T05:26:56;98584.84;;;10.61;100.00
20394;BME280;10356;50.544;9.642;2022-10-30T05:29:23;98582.75;;;10.66;100.00
20394;BME280;10356;50.544;9.642;2022-10-30T05:31:50;98588.94;;;10.76;100.00
20394;BME280;10356;50.544;9.642;2022-10-30T05:34:16;98588.72;;;10.79;100.00
20394;BME280;10356;50.544;9.642;2022-10-30T05:36:43;98586.63;;;10.84;100.00
20394;BME280;10356;50.544;9.642;2022-10-30T05:39:09;98579.28;;;10.89;100.00
20394;BME280;10356;50.544;9.642;2022-10-30T05:41:36;98578.81;;;10.95;100.00
20394;BME280;10356;50.544;9.642;2022-10-30T05:44:02;98581.75;;;10.91;100.00
20394;BME280;10356;50.544;9.642;2022-10-30T05:46:30;98578.22;;;10.92;100.00
20394;BME280;10356;50.544;9.642;2022-10-30T05:48:56;98576.19;;;10.84;100.00
20394;BME280;10356;50.544;9.642;2022-10-30T05:51:24;98590.38;;;10.80;100.00
20394;BME280;10356;50.544;9.642;2022-10-30T05:53:51;98584.53;;;10.77;100.00
20394;BME280;10356;50.544;9.642;2022-10-30T05:56:17;98590.84;;;10.74;100.00
20394;BME280;10356;50.544;9.642;2022-10-30T05:58:44;98593.31;;;10.76;100.00
20394;BME280;10356;50.544;9.642;2022-10-30T06:01:10;98590.59;;;10.77;100.00
20394;BME280;10356;50.544;9.642;2022-10-30T06:03:38;98596.78;;;10.76;100.00
20394;BME280;10356;50.544;9.642;2022-10-30T06:06:05;98602.59;;;10.80;100.00
20394;BME280;10356;50.544;9.642;2022-10-30T06:08:31;98598.28;;;10.79;100.00
20394;BME280;10356;50.544;9.642;2022-10-30T06:10:58;98594.75;;;10.80;100.00
20394;BME280;10356;50.544;9.642;2022-10-30T06:13:24;98591.84;;;10.84;100.00
20394;BME280;10356;50.544;9.642;2022-10-30T06:15:53;98596.59;;;10.90;100.00
20394;BME280;10356;50.544;9.642;2022-10-30T06:18:19;98591.13;;;10.93;100.00
20394;BME280;10356;50.544;9.642;2022-10-30T06:20:47;98603.00;;;10.97;100.00
20394;BME280;10356;50.544;9.642;2022-10-30T06:23:14;98596.75;;;11.00;100.00
20394;BME280;10356;50.544;9.642;2022-10-30T06:25:40;98597.34;;;11.04;100.00
20394;BME280;10356;50.544;9.642;2022-10-30T06:28:08;98601.25;;;11.09;100.00
20394;BME280;10356;50.544;9.642;2022-10-30T06:30:35;98602.81;;;11.12;100.00
20394;BME280;10356;50.544;9.642;2022-10-30T06:33:03;98603.31;;;11.17;100.00
20394;BME280;10356;50.544;9.642;2022-10-30T06:35:30;98606.53;;;11.20;100.00
20394;BME280;10356;50.544;9.642;2022-10-30T06:37:58;98607.84;;;11.26;100.00
20394;BME280;10356;50.544;9.642;2022-10-30T06:40:26;98604.91;;;11.30;100.00
20394;BME280;10356;50.544;9.642;2022-10-30T06:42:56;98607.66;;;11.40;100.00
20394;BME280;10356;50.544;9.642;2022-10-30T06:45:23;98608.59;;;11.39;100.00
20394;BME280;10356;50.544;9.642;2022-10-30T06:47:50;98609.78;;;11.46;100.00
20394;BME280;10356;50.544;9.642;2022-10-30T06:50:18;98609.59;;;11.49;100.00
20394;BME280;10356;50.544;9.642;2022-10-30T06:52:46;98613.63;;;11.53;100.00
20394;BME280;10356;50.544;9.642;2022-10-30T06:55:15;98610.53;;;11.59;100.00
20394;BME280;10356;50.544;9.642;2022-10-30T06:57:41;98600.56;;;11.64;100.00
20394;BME280;10356;50.544;9.642;2022-10-30T07:00:09;98612.13;;;11.72;100.00
20394;BME280;10356;50.544;9.642;2022-10-30T07:02:36;98608.13;;;11.79;100.00
20394;BME280;10356;50.544;9.642;2022-10-30T07:05:03;98609.16;;;11.88;100.00
20394;BME280;10356;50.544;9.642;2022-10-30T07:07:29;98605.88;;;11.97;100.00
20394;BME280;10356;50.544;9.642;2022-10-30T07:09:56;98624.97;;;12.09;100.00
20394;BME280;10356;50.544;9.642;2022-10-30T07:12:24;98623.19;;;12.20;100.00
20394;BME280;10356;50.544;9.642;2022-10-30T07:14:50;98627.44;;;12.32;100.00
20394;BME280;10356;50.544;9.642;2022-10-30T07:17:17;98633.13;;;12.48;100.00
20394;BME280;10356;50.544;9.642;2022-10-30T07:19:43;98631.94;;;12.63;100.00
20394;BME280;10356;50.544;9.642;2022-10-30T07:22:09;98634.72;;;12.83;100.00
20394;BME280;10356;50.544;9.642;2022-10-30T07:24:36;98648.34;;;12.97;100.00
20394;BME280;10356;50.544;9.642;2022-10-30T07:27:08;98641.09;;;13.12;100.00
20394;BME280;10356;50.544;9.642;2022-10-30T07:29:36;98652.81;;;13.28;100.00
20394;BME280;10356;50.544;9.642;2022-10-30T07:32:03;98650.44;;;13.46;100.00
20394;BME280;10356;50.544;9.642;2022-10-30T07:34:30;98659.25;;;13.66;100.00
20394;BME280;10356;50.544;9.642;2022-10-30T07:36:56;98651.06;;;13.80;100.00
20394;BME280;10356;50.544;9.642;2022-10-30T07:39:23;98653.34;;;13.94;100.00
20394;BME280;10356;50.544;9.642;2022-10-30T07:41:49;98654.56;;;14.10;100.00
20394;BME280;10356;50.544;9.642;2022-10-30T07:44:16;98650.88;;;14.22;100.00
20394;BME280;10356;50.544;9.642;2022-10-30T07:46:44;98661.31;;;14.34;100.00
20394;BME280;10356;50.544;9.642;2022-10-30T07:49:10;98661.63;;;14.40;100.00
20394;BME280;10356;50.544;9.642;2022-10-30T07:51:37;98661.91;;;14.47;100.00
20394;BME280;10356;50.544;9.642;2022-10-30T07:54:03;98667.75;;;14.50;100.00
20394;BME280;10356;50.544;9.642;2022-10-30T07:56:30;98662.91;;;14.55;100.00
20394;BME280;10356;50.544;9.642;2022-10-30T07:58:56;98665.97;;;14.60;100.00
20394;BME280;10356;50.544;9.642;2022-10-30T08:01:23;98653.28;;;14.65;100.00
20394;BME280;10356;50.544;9.642;2022-10-30T08:03:50;98653.28;;;14.75;100.00
20394;BME280;10356;50.544;9.642;2022-10-30T08:06:17;98655.13;;;14.84;100.00
20394;BME280;10356;50.544;9.642;2022-10-30T08:08:43;98653.34;;;14.94;100.00
20394;BME280;10356;50.544;9.642;2022-10-30T08:11:10;98650.19;;;15.00;100.00
20394;BME280;10356;50.544;9.642;2022-10-30T08:13:36;98646.03;;;15.07;100.00
20394;BME280;10356;50.544;9.642;2022-10-30T08:16:03;98650.72;;;15.13;100.00
20394;BME280;10356;50.544;9.642;2022-10-30T08:18:29;98658.75;;;15.21;100.00
20394;BME280;10356;50.544;9.642;2022-10-30T08:20:57;98655.31;;;15.30;100.00
20394;BME280;10356;50.544;9.642;2022-10-30T08:23:24;98649.19;;;15.39;100.00
20394;BME280;10356;50.544;9.642;2022-10-30T08:25:50;98652.41;;;15.52;100.00
20394;BME280;10356;50.544;9.642;2022-10-30T08:28:17;98659.19;;;15.64;100.00
20394;BME280;10356;50.544;9.642;2022-10-30T08:30:43;98659.03;;;15.75;100.00
20394;BME280;10356;50.544;9.642;2022-10-30T08:33:11;98655.41;;;15.86;100.00
20394;BME280;10356;50.544;9.642;2022-10-30T08:35:45;98655.09;;;15.98;100.00
20394;BME280;10356;50.544;9.642;2022-10-30T08:38:13;98648.44;;;16.14;100.00
20394;BME280;10356;50.544;9.642;2022-10-30T08:40:40;98658.91;;;16.23;100.00
20394;BME280;10356;50.544;9.642;2022-10-30T08:43:07;98656.06;;;16.34;100.00
20394;BME280;10356;50.544;9.642;2022-10-30T08:45:34;98652.59;;;16.43;100.00
20394;BME280;10356;50.544;9.642;2022-10-30T08:48:03;98643.03;;;16.52;100.00
20394;BME280;10356;50.544;9.642;2022-10-30T08:50:30;98649.34;;;16.59;100.00
20394;BME280;10356;50.544;9.642;2022-10-30T08:52:59;98641.88;;;16.64;100.00
20394;BME280;10356;50.544;9.642;2022-10-30T08:55:28;98635.16;;;16.69;100.00
20394;BME280;10356;50.544;9.642;2022-10-30T08:57:54;98634.06;;;16.72;100.00
20394;BME280;10356;50.544;9.642;2022-10-30T09:00:21;98634.31;;;16.78;100.00
20394;BME280;10356;50.544;9.642;2022-10-30T09:02:47;98634.91;;;16.90;100.00
20394;BME280;10356;50.544;9.642;2022-10-30T09:05:14;98629.41;;;17.01;100.00
20394;BME280;10356;50.544;9.642;2022-10-30T09:07:40;98622.94;;;17.13;100.00
20394;BME280;10356;50.544;9.642;2022-10-30T09:10:07;98622.72;;;17.24;100.00
20394;BME280;10356;50.544;9.642;2022-10-30T09:12:35;98624.31;;;17.35;99.93
20394;BME280;10356;50.544;9.642;2022-10-30T09:15:02;98622.19;;;17.38;97.09
20394;BME280;10356;50.544;9.642;2022-10-30T09:17:29;98627.63;;;17.54;95.30
20394;BME280;10356;50.544;9.642;2022-10-30T09:19:55;98623.59;;;17.68;94.71
20394;BME280;10356;50.544;9.642;2022-10-30T09:22:22;98627.81;;;17.79;94.12
20394;BME280;10356;50.544;9.642;2022-10-30T09:24:48;98624.75;;;17.91;92.97
20394;BME280;10356;50.544;9.642;2022-10-30T09:33:48;98634.72;;;18.39;88.20
20394;BME280;10356;50.544;9.642;2022-10-30T09:36:15;98638.78;;;18.51;88.69
20394;BME280;10356;50.544;9.642;2022-10-30T09:38:41;98643.09;;;18.60;89.24
20394;BME280;10356;50.544;9.642;2022-10-30T09:41:27;98636.72;;;18.79;87.49
20394;BME280;10356;50.544;9.642;2022-10-30T09:44:06;98632.94;;;18.89;86.78
20394;BME280;10356;50.544;9.642;2022-10-30T09:46:45;98638.25;;;19.05;86.79
20394;BME280;10356;50.544;9.642;2022-10-30T09:49:47;98642.09;;;19.27;84.59
20394;BME280;10356;50.544;9.642;2022-10-30T09:52:27;98636.03;;;19.43;82.73
20394;BME280;10356;50.544;9.642;2022-10-30T09:55:04;98638.03;;;19.57;81.35
20394;BME280;10356;50.544;9.642;2022-10-30T09:57:39;98643.28;;;19.81;80.55
20394;BME280;10356;50.544;9.642;2022-10-30T10:00:10;98646.56;;;19.99;77.88
20394;BME280;10356;50.544;9.642;2022-10-30T10:02:52;98644.06;;;20.22;74.59
20394;BME280;10356;50.544;9.642;2022-10-30T10:05:25;98639.91;;;20.35;70.07
20394;BME280;10356;50.544;9.642;2022-10-30T10:07:56;98649.31;;;20.38;68.14
20394;BME280;10356;50.544;9.642;2022-10-30T10:10:31;98646.09;;;20.50;67.47
20394;BME280;10356;50.544;9.642;2022-10-30T10:13:02;98647.06;;;20.65;67.04
20394;BME280;10356;50.544;9.642;2022-10-30T10:15:36;98646.72;;;20.68;66.85
20394;BME280;10356;50.544;9.642;2022-10-30T10:18:22;98641.91;;;20.72;64.31
20394;BME280;10356;50.544;9.642;2022-10-30T10:20:52;98648.63;;;20.82;64.15
20394;BME280;10356;50.544;9.642;2022-10-30T10:23:26;98640.16;;;20.87;63.79
20394;BME280;10356;50.544;9.642;2022-10-30T10:25:57;98644.22;;;20.98;62.89
20394;BME280;10356;50.544;9.642;2022-10-30T10:28:41;98637.88;;;21.15;61.58
20394;BME280;10356;50.544;9.642;2022-10-30T10:31:23;98644.75;;;21.24;62.35
20394;BME280;10356;50.544;9.642;2022-10-30T10:34:02;98638.81;;;21.22;60.93
20394;BME280;10356;50.544;9.642;2022-10-30T10:36:41;98640.19;;;21.40;60.28
20394;BME280;10356;50.544;9.642;2022-10-30T10:39:22;98629.97;;;21.52;58.07
20394;BME280;10356;50.544;9.642;2022-10-30T10:42:02;98637.97;;;21.66;58.18
20394;BME280;10356;50.544;9.642;2022-10-30T10:44:40;98632.59;;;21.74;57.90
20394;BME280;10356;50.544;9.642;2022-10-30T10:47:29;98621.44;;;21.79;57.58
20394;BME280;10356;50.544;9.642;2022-10-30T10:50:12;98631.00;;;21.88;56.42
20394;BME280;10356;50.544;9.642;2022-10-30T10:52:46;98632.28;;;21.92;58.13
20394;BME280;10356;50.544;9.642;2022-10-30T10:55:16;98621.03;;;21.90;56.19
20394;BME280;10356;50.544;9.642;2022-10-30T10:57:44;98626.53;;;22.03;56.58
20394;BME280;10356;50.544;9.642;2022-10-30T11:00:16;98625.63;;;22.11;56.97
20394;BME280;10356;50.544;9.642;2022-10-30T11:02:48;98623.25;;;22.16;55.17
20394;BME280;10356;50.544;9.642;2022-10-30T11:05:21;98621.16;;;22.11;55.38
20394;BME280;10356;50.544;9.642;2022-10-30T11:07:53;98620.13;;;22.27;54.81
20394;BME280;10356;50.544;9.642;2022-10-30T11:10:23;98620.03;;;22.20;55.05
20394;BME280;10356;50.544;9.642;2022-10-30T11:12:50;98620.13;;;22.27;55.47
20394;BME280;10356;50.544;9.642;2022-10-30T11:15:25;98612.38;;;22.25;53.99
20394;BME280;10356;50.544;9.642;2022-10-30T11:17:58;98616.75;;;22.47;54.23
20394;BME280;10356;50.544;9.642;2022-10-30T11:20:30;98613.53;;;22.37;55.18
20394;BME280;10356;50.544;9.642;2022-10-30T11:23:01;98612.06;;;22.49;54.99
20394;BME280;10356;50.544;9.642;2022-10-30T11:25:33;98602.53;;;22.55;54.58
20394;BME280;10356;50.544;9.642;2022-10-30T11:28:03;98603.19;;;22.72;53.74
20394;BME280;10356;50.544;9.642;2022-10-30T11:30:30;98604.22;;;22.92;52.86
20394;BME280;10356;50.544;9.642;2022-10-30T11:32:58;98605.09;;;22.99;52.91
20394;BME280;10356;50.544;9.642;2022-10-30T11:35:25;98596.25;;;23.13;52.72
20394;BME280;10356;50.544;9.642;2022-10-30T11:38:12;98597.06;;;23.13;52.06
20394;BME280;10356;50.544;9.642;2022-10-30T11:40:45;98595.31;;;23.20;51.30
20394;BME280;10356;50.544;9.642;2022-10-30T11:43:14;98591.75;;;23.13;50.80
20394;BME280;10356;50.544;9.642;2022-10-30T11:45:44;98602.09;;;23.23;51.43
20394;BME280;10356;50.544;9.642;2022-10-30T11:48:19;98593.97;;;23.10;51.32
20394;BME280;10356;50.544;9.642;2022-10-30T11:50:48;98600.16;;;23.17;51.69
20394;BME280;10356;50.544;9.642;2022-10-30T11:53:21;98591.41;;;23.16;51.31
20394;BME280;10356;50.544;9.642;2022-10-30T11:55:49;98588.69;;;23.31;50.58
20394;BME280;10356;50.544;9.642;2022-10-30T11:58:22;98596.16;;;23.42;51.38
20394;BME280;10356;50.544;9.642;2022-10-30T12:00:59;98595.31;;;23.42;50.48
20394;BME280;10356;50.544;9.642;2022-10-30T12:03:28;98585.91;;;23.39;50.98
20394;BME280;10356;50.544;9.642;2022-10-30T12:06:07;98584.19;;;23.53;51.04
20394;BME280;10356;50.544;9.642;2022-10-30T12:08:35;98587.22;;;23.50;51.20
20394;BME280;10356;50.544;9.642;2022-10-30T12:11:04;98592.22;;;23.59;50.59
20394;BME280;10356;50.544;9.642;2022-10-30T12:13:36;98591.88;;;23.69;51.36
20394;BME280;10356;50.544;9.642;2022-10-30T12:16:11;98590.47;;;23.45;52.28
20394;BME280;10356;50.544;9.642;2022-10-30T12:18:40;98582.88;;;23.70;50.87
20394;BME280;10356;50.544;9.642;2022-10-30T12:21:07;98578.00;;;23.73;50.87
20394;BME280;10356;50.544;9.642;2022-10-30T12:23:35;98580.69;;;23.52;51.81
20394;BME280;10356;50.544;9.642;2022-10-30T12:26:08;98575.50;;;23.44;51.38
20394;BME280;10356;50.544;9.642;2022-10-30T12:28:37;98572.72;;;23.31;51.68
20394;BME280;10356;50.544;9.642;2022-10-30T12:31:09;98566.66;;;23.37;52.10
20394;BME280;10356;50.544;9.642;2022-10-30T12:33:42;98565.25;;;23.20;52.34
20394;BME280;10356;50.544;9.642;2022-10-30T12:36:13;98562.09;;;23.31;52.30
20394;BME280;10356;50.544;9.642;2022-10-30T12:38:44;98557.53;;;23.25;52.03
20394;BME280;10356;50.544;9.642;2022-10-30T12:41:17;98560.72;;;23.35;52.26
20394;BME280;10356;50.544;9.642;2022-10-30T12:43:47;98557.28;;;23.41;51.72
20394;BME280;10356;50.544;9.642;2022-10-30T12:46:29;98559.88;;;23.34;51.77
20394;BME280;10356;50.544;9.642;2022-10-30T12:49:05;98565.50;;;23.25;53.22
20394;BME280;10356;50.544;9.642;2022-10-30T12:51:37;98566.25;;;23.40;52.56
20394;BME280;10356;50.544;9.642;2022-10-30T12:54:16;98556.81;;;23.38;52.45
20394;BME280;10356;50.544;9.642;2022-10-30T12:56:49;98560.94;;;23.40;52.80
20394;BME280;10356;50.544;9.642;2022-10-30T12:59:26;98555.75;;;23.32;52.83
20394;BME280;10356;50.544;9.642;2022-10-30T13:01:58;98555.81;;;23.39;52.56
20394;BME280;10356;50.544;9.642;2022-10-30T13:04:32;98555.09;;;23.30;52.57
20394;BME280;10356;50.544;9.642;2022-10-30T13:07:04;98548.69;;;23.39;53.21
20394;BME280;10356;50.544;9.642;2022-10-30T13:09:39;98552.34;;;23.38;52.28
20394;BME280;10356;50.544;9.642;2022-10-30T13:12:09;98549.44;;;23.33;53.63